createdAt,value
2016-12-06T00:00:18.255Z,0.79
2016-12-06T00:01:18.270Z,0.91
2016-12-06T00:02:18.286Z,0.88
2016-12-06T00:03:18.300Z,0.87
2016-12-06T00:04:33.234Z,0.73
2016-12-06T00:05:33.251Z,0.8
2016-12-06T00:06:18.336Z,0.87
2016-12-06T00:07:18.353Z,0.87
2016-12-06T00:08:18.369Z,0.87
2016-12-06T00:09:18.384Z,0.84
2016-12-06T00:10:18.399Z,0.96
2016-12-06T00:11:18.416Z,0.93
2016-12-06T00:12:18.429Z,0.97
2016-12-06T00:13:18.441Z,0.97
2016-12-06T00:14:18.499Z,1.15
2016-12-06T00:15:18.469Z,1.18
2016-12-06T00:16:18.487Z,1.15
2016-12-06T00:17:33.423Z,1.11
2016-12-06T00:18:18.570Z,1.11
2016-12-06T00:19:18.522Z,1
2016-12-06T00:20:33.461Z,1.05
2016-12-06T00:21:33.477Z,1.08
2016-12-06T00:22:18.575Z,1.12
2016-12-06T00:23:33.504Z,1.06
2016-12-06T00:24:18.605Z,1.05
2016-12-06T00:25:18.616Z,1.15
2016-12-06T00:26:18.626Z,1.08
2016-12-06T00:27:18.640Z,1.11
2016-12-06T00:28:18.654Z,1.06
2016-12-06T00:29:18.673Z,1
2016-12-06T00:30:18.680Z,1.14
2016-12-06T00:31:18.696Z,1.14
2016-12-06T00:32:18.711Z,1.2
2016-12-06T00:33:18.729Z,1.22
2016-12-06T00:34:33.666Z,1.18
2016-12-06T00:35:18.763Z,1.15
2016-12-06T00:36:18.775Z,1.15
2016-12-06T00:37:33.709Z,1.09
2016-12-06T00:38:18.830Z,1.11
2016-12-06T00:39:19.118Z,1.14
2016-12-06T00:40:19.132Z,1.12
2016-12-06T00:41:18.837Z,1.09
2016-12-06T00:42:18.861Z,1.14
2016-12-06T00:43:18.870Z,1.14
2016-12-06T00:44:18.887Z,1.18
2016-12-06T00:45:19.202Z,1.27
2016-12-06T00:46:18.916Z,1.14
2016-12-06T00:47:18.935Z,1.08
2016-12-06T00:48:18.943Z,1.2
2016-12-06T00:49:18.956Z,1.11
2016-12-06T00:50:18.979Z,1.22
2016-12-06T00:51:18.991Z,1.2
2016-12-06T00:52:19.001Z,1.11
2016-12-06T00:53:33.940Z,1.12
2016-12-06T00:54:19.036Z,1.14
2016-12-06T00:55:19.053Z,1.12
2016-12-06T00:56:19.061Z,1.14
2016-12-06T00:57:19.080Z,1.15
2016-12-06T00:58:19.141Z,1.11
2016-12-06T00:59:19.108Z,1.22
2016-12-06T01:00:19.119Z,1.23
2016-12-06T01:01:19.137Z,1.29
2016-12-06T01:02:19.150Z,1.34
2016-12-06T01:03:19.161Z,1.16
2016-12-06T01:04:19.180Z,1.29
2016-12-06T01:06:19.207Z,1.36
2016-12-06T01:07:19.224Z,1.3
2016-12-06T01:08:34.162Z,1.23
2016-12-06T01:09:19.259Z,1.15
2016-12-06T01:10:19.268Z,1.12
2016-12-06T01:12:19.304Z,1.16
2016-12-06T01:13:19.316Z,1.06
2016-12-06T01:14:19.323Z,1.02
2016-12-06T01:15:19.395Z,1.2
2016-12-06T01:16:19.359Z,1.16
2016-12-06T01:17:19.364Z,1.12
2016-12-06T01:18:19.386Z,1.14
2016-12-06T01:19:19.395Z,1.08
2016-12-06T01:20:19.413Z,1.18
2016-12-06T01:22:19.437Z,1.11
2016-12-06T01:23:19.454Z,1.2
2016-12-06T01:24:19.471Z,1.16
2016-12-06T01:25:19.491Z,1.15
2016-12-06T01:26:19.503Z,1.34
2016-12-06T01:27:19.519Z,1.36
2016-12-06T01:28:19.529Z,1.27
2016-12-06T01:29:19.548Z,1.4
2016-12-06T01:30:19.555Z,1.42
2016-12-06T01:31:19.577Z,1.47
2016-12-06T01:32:19.588Z,1.41
2016-12-06T01:33:19.604Z,1.42
2016-12-06T01:34:19.618Z,1.42
2016-12-06T01:35:19.632Z,1.59
2016-12-06T01:36:19.645Z,1.47
2016-12-06T01:37:19.961Z,1.59
2016-12-06T01:38:19.677Z,1.44
2016-12-06T01:39:19.992Z,1.47
2016-12-06T01:40:34.624Z,1.42
2016-12-06T01:42:34.653Z,1.4
2016-12-06T01:43:19.749Z,1.42
2016-12-06T01:44:19.765Z,1.42
2016-12-06T01:45:19.779Z,1.51
2016-12-06T01:46:19.799Z,1.55
2016-12-06T01:47:20.111Z,1.58
2016-12-06T01:48:19.821Z,1.58
2016-12-06T01:49:19.836Z,1.62
2016-12-06T01:50:19.854Z,1.68
2016-12-06T01:51:19.864Z,1.69
2016-12-06T01:52:19.884Z,1.66
2016-12-06T01:53:19.895Z,1.66
2016-12-06T01:55:19.931Z,1.63
2016-12-06T01:56:34.862Z,1.7
2016-12-06T01:57:19.958Z,1.66
2016-12-06T01:58:19.975Z,1.65
2016-12-06T01:59:19.988Z,1.68
2016-12-06T02:00:20.004Z,1.62
2016-12-06T02:01:20.018Z,1.63
2016-12-06T02:02:20.035Z,1.73
2016-12-06T02:03:20.045Z,1.7
2016-12-06T02:04:20.062Z,1.7
2016-12-06T02:05:20.074Z,1.69
2016-12-06T02:06:20.088Z,1.79
2016-12-06T02:07:20.111Z,1.66
2016-12-06T02:08:20.118Z,1.59
2016-12-06T02:09:20.134Z,1.59
2016-12-06T02:10:35.073Z,1.59
2016-12-06T02:11:20.171Z,1.62
2016-12-06T02:12:35.101Z,1.66
2016-12-06T02:13:20.198Z,1.66
2016-12-06T02:14:20.212Z,1.65
2016-12-06T02:15:20.233Z,1.62
2016-12-06T02:16:20.241Z,1.77
2016-12-06T02:17:20.273Z,1.69
2016-12-06T02:18:20.278Z,1.63
2016-12-06T02:19:20.287Z,1.66
2016-12-06T02:20:20.298Z,1.62
2016-12-06T02:21:20.320Z,1.58
2016-12-06T02:23:20.343Z,1.68
2016-12-06T02:25:20.380Z,1.66
2016-12-06T02:26:35.313Z,1.73
2016-12-06T02:27:35.330Z,1.73
2016-12-06T02:28:35.349Z,1.63
2016-12-06T02:30:20.455Z,1.65
2016-12-06T02:31:20.465Z,1.68
2016-12-06T02:32:20.489Z,1.72
2016-12-06T02:33:20.501Z,1.7
2016-12-06T02:34:20.510Z,1.69
2016-12-06T02:35:20.631Z,1.77
2016-12-06T02:36:20.544Z,1.76
2016-12-06T02:37:20.557Z,1.8
2016-12-06T02:38:20.592Z,1.68
2016-12-06T02:39:20.586Z,1.63
2016-12-06T02:41:35.539Z,1.65
2016-12-06T02:42:20.632Z,1.76
2016-12-06T02:43:35.571Z,1.76
2016-12-06T02:44:20.664Z,1.72
2016-12-06T02:45:20.677Z,1.65
2016-12-06T02:46:20.692Z,1.79
2016-12-06T02:47:20.705Z,1.63
2016-12-06T02:48:20.723Z,1.62
2016-12-06T02:49:20.736Z,1.68
2016-12-06T02:50:20.755Z,1.72
2016-12-06T02:51:20.766Z,1.73
2016-12-06T02:52:20.779Z,1.83
2016-12-06T02:53:20.796Z,1.81
2016-12-06T02:54:20.814Z,1.76
2016-12-06T02:55:20.830Z,1.73
2016-12-06T02:57:20.860Z,1.84
2016-12-06T02:58:20.877Z,1.86
2016-12-06T02:59:35.808Z,1.81
2016-12-06T03:00:20.899Z,1.88
2016-12-06T03:01:35.837Z,1.83
2016-12-06T03:02:20.933Z,1.87
2016-12-06T03:04:20.972Z,1.84
2016-12-06T03:05:21.003Z,1.95
2016-12-06T03:06:20.993Z,1.91
2016-12-06T03:07:21.007Z,2
2016-12-06T03:08:21.023Z,1.91
2016-12-06T03:09:21.035Z,1.99
2016-12-06T03:10:35.979Z,1.98
2016-12-06T03:12:21.082Z,2
2016-12-06T03:13:21.092Z,2.05
2016-12-06T03:14:21.108Z,2.03
2016-12-06T03:15:36.050Z,1.9
2016-12-06T03:16:21.148Z,1.99
2016-12-06T03:17:36.079Z,1.87
2016-12-06T03:18:21.222Z,1.99
2016-12-06T03:19:21.188Z,2.02
2016-12-06T03:20:21.201Z,2.02
2016-12-06T03:21:21.218Z,2.02
2016-12-06T03:22:21.231Z,1.95
2016-12-06T03:23:21.249Z,1.95
2016-12-06T03:24:21.260Z,2.03
2016-12-06T03:25:21.277Z,2.02
2016-12-06T03:26:21.295Z,2
2016-12-06T03:27:21.311Z,2.18
2016-12-06T03:28:21.328Z,2.14
2016-12-06T03:31:36.289Z,2.03
2016-12-06T03:32:21.434Z,1.91
2016-12-06T03:33:36.320Z,2.06
2016-12-06T03:35:21.431Z,1.99
2016-12-06T03:36:21.444Z,2.02
2016-12-06T03:37:21.459Z,2.03
2016-12-06T03:38:21.472Z,2
2016-12-06T03:39:21.493Z,1.91
2016-12-06T03:40:21.510Z,1.98
2016-12-06T03:41:21.521Z,2.06
2016-12-06T03:42:21.531Z,1.99
2016-12-06T03:43:21.552Z,2.02
2016-12-06T03:44:21.563Z,1.9
2016-12-06T03:45:21.580Z,2.05
2016-12-06T03:46:21.623Z,2.02
2016-12-06T03:47:36.582Z,2.06
2016-12-06T03:48:21.627Z,2.06
2016-12-06T03:49:21.937Z,1.99
2016-12-06T03:50:21.656Z,2.07
2016-12-06T03:51:21.673Z,2.03
2016-12-06T03:52:21.687Z,1.99
2016-12-06T03:53:21.705Z,1.95
2016-12-06T03:54:22.018Z,2.02
2016-12-06T03:55:21.784Z,2.06
2016-12-06T03:57:21.761Z,2.09
2016-12-06T03:58:22.088Z,2.14
2016-12-06T03:59:21.800Z,2.06
2016-12-06T04:00:21.813Z,2
2016-12-06T04:01:36.745Z,2.09
2016-12-06T04:02:21.833Z,2.14
2016-12-06T04:03:36.770Z,2.16
2016-12-06T04:04:21.868Z,2.12
2016-12-06T04:05:21.904Z,2.18
2016-12-06T04:06:22.205Z,2.12
2016-12-06T04:07:21.911Z,2.2
2016-12-06T04:08:21.933Z,2.2
2016-12-06T04:09:21.942Z,2.18
2016-12-06T04:10:21.973Z,2.21
2016-12-06T04:11:21.976Z,2.23
2016-12-06T04:13:22.007Z,2.25
2016-12-06T04:15:22.036Z,2.24
2016-12-06T04:17:22.063Z,2.16
2016-12-06T04:18:37.008Z,2.3
2016-12-06T04:19:22.175Z,2.23
2016-12-06T04:21:22.432Z,2.31
2016-12-06T04:22:22.173Z,2.35
2016-12-06T04:23:22.161Z,2.27
2016-12-06T04:24:37.422Z,2.35
2016-12-06T04:25:22.187Z,2.31
2016-12-06T04:26:22.203Z,2.39
2016-12-06T04:27:22.216Z,2.41
2016-12-06T04:28:22.236Z,2.35
2016-12-06T04:29:22.247Z,2.35
2016-12-06T04:30:22.261Z,2.31
2016-12-06T04:31:22.282Z,2.28
2016-12-06T04:32:22.292Z,2.28
2016-12-06T04:33:22.311Z,2.28
2016-12-06T04:34:22.322Z,2.28
2016-12-06T04:35:22.342Z,2.34
2016-12-06T04:36:22.352Z,2.31
2016-12-06T04:37:22.364Z,2.34
2016-12-06T04:38:22.384Z,2.35
2016-12-06T04:39:22.403Z,2.34
2016-12-06T04:40:22.416Z,2.42
2016-12-06T04:41:22.433Z,2.31
2016-12-06T04:42:22.448Z,2.3
2016-12-06T04:43:22.455Z,2.31
2016-12-06T04:44:22.480Z,2.31
2016-12-06T04:45:22.488Z,2.35
2016-12-06T04:46:22.809Z,2.42
2016-12-06T04:47:22.521Z,2.3
2016-12-06T04:48:22.544Z,2.35
2016-12-06T04:49:37.477Z,2.31
2016-12-06T04:50:37.491Z,2.35
2016-12-06T04:51:22.588Z,2.42
2016-12-06T04:52:22.601Z,2.39
2016-12-06T04:53:22.615Z,2.45
2016-12-06T04:54:22.633Z,2.49
2016-12-06T04:55:22.649Z,2.42
2016-12-06T04:56:22.661Z,2.46
2016-12-06T04:57:22.678Z,2.35
2016-12-06T04:58:22.690Z,2.41
2016-12-06T05:00:22.766Z,2.53
2016-12-06T05:01:22.741Z,2.54
2016-12-06T05:02:22.753Z,2.54
2016-12-06T05:03:37.693Z,2.59
2016-12-06T05:04:22.787Z,2.59
2016-12-06T05:05:22.799Z,2.56
2016-12-06T05:06:37.738Z,2.69
2016-12-06T05:07:37.751Z,2.59
2016-12-06T05:08:22.854Z,2.49
2016-12-06T05:09:22.862Z,2.59
2016-12-06T05:10:22.876Z,2.46
2016-12-06T05:11:22.898Z,2.54
2016-12-06T05:12:22.912Z,2.6
2016-12-06T05:13:22.928Z,2.57
2016-12-06T05:14:22.935Z,2.48
2016-12-06T05:15:22.949Z,2.64
2016-12-06T05:16:22.978Z,2.56
2016-12-06T05:17:22.983Z,2.61
2016-12-06T05:18:23.003Z,2.66
2016-12-06T05:19:23.017Z,2.6
2016-12-06T05:21:23.050Z,2.66
2016-12-06T05:22:37.980Z,2.72
2016-12-06T05:23:37.997Z,2.67
2016-12-06T05:24:23.091Z,2.64
2016-12-06T05:25:23.109Z,2.59
2016-12-06T05:26:23.129Z,2.57
2016-12-06T05:27:23.137Z,2.66
2016-12-06T05:28:23.150Z,2.59
2016-12-06T05:29:23.172Z,2.67
2016-12-06T05:30:23.187Z,2.72
2016-12-06T05:31:23.207Z,2.66
2016-12-06T05:32:23.216Z,2.67
2016-12-06T05:33:23.232Z,2.75
2016-12-06T05:34:23.250Z,2.69
2016-12-06T05:35:38.194Z,2.69
2016-12-06T05:36:23.276Z,2.61
2016-12-06T05:37:23.295Z,2.67
2016-12-06T05:38:38.230Z,2.72
2016-12-06T05:39:23.324Z,2.66
2016-12-06T05:40:38.260Z,2.72
2016-12-06T05:41:23.354Z,2.77
2016-12-06T05:42:23.372Z,2.69
2016-12-06T05:43:23.395Z,2.81
2016-12-06T05:44:23.400Z,2.67
2016-12-06T05:45:23.421Z,2.74
2016-12-06T05:46:23.736Z,2.69
2016-12-06T05:47:23.455Z,2.69
2016-12-06T05:48:23.459Z,2.75
2016-12-06T05:49:23.775Z,2.72
2016-12-06T05:50:23.493Z,2.67
2016-12-06T05:51:38.436Z,2.78
2016-12-06T05:52:23.527Z,2.78
2016-12-06T05:53:38.467Z,2.69
2016-12-06T05:54:23.608Z,2.75
2016-12-06T05:55:23.580Z,2.69
2016-12-06T05:56:23.595Z,2.66
2016-12-06T05:57:23.608Z,2.74
2016-12-06T05:58:23.621Z,2.74
2016-12-06T05:59:23.632Z,2.66
2016-12-06T06:00:23.649Z,2.81
2016-12-06T06:01:23.669Z,2.81
2016-12-06T06:02:23.679Z,2.72
2016-12-06T06:03:23.695Z,2.79
2016-12-06T06:04:23.714Z,2.79
2016-12-06T06:06:23.741Z,2.78
2016-12-06T06:07:23.756Z,2.75
2016-12-06T06:08:38.698Z,2.67
2016-12-06T06:09:23.791Z,2.69
2016-12-06T06:10:23.803Z,2.79
2016-12-06T06:11:23.829Z,2.84
2016-12-06T06:12:23.833Z,2.77
2016-12-06T06:13:23.856Z,2.79
2016-12-06T06:14:23.866Z,2.77
2016-12-06T06:15:23.881Z,2.79
2016-12-06T06:16:23.927Z,2.81
2016-12-06T06:17:23.917Z,2.82
2016-12-06T06:18:23.933Z,2.82
2016-12-06T06:19:23.940Z,2.85
2016-12-06T06:20:38.887Z,2.82
2016-12-06T06:21:38.904Z,2.84
2016-12-06T06:22:23.991Z,2.89
2016-12-06T06:23:24.318Z,2.81
2016-12-06T06:24:38.946Z,2.84
2016-12-06T06:25:38.959Z,2.79
2016-12-06T06:26:24.050Z,2.81
2016-12-06T06:27:24.122Z,2.9
2016-12-06T06:28:24.088Z,2.77
2016-12-06T06:29:24.106Z,2.89
2016-12-06T06:30:24.113Z,2.78
2016-12-06T06:31:24.134Z,2.85
2016-12-06T06:32:24.200Z,2.85
2016-12-06T06:33:24.164Z,2.78
2016-12-06T06:35:24.195Z,2.79
2016-12-06T06:37:24.221Z,2.77
2016-12-06T06:38:24.289Z,2.74
2016-12-06T06:39:24.254Z,2.77
2016-12-06T06:40:24.274Z,2.79
2016-12-06T06:41:39.206Z,2.78
2016-12-06T06:42:24.310Z,2.79
2016-12-06T06:43:39.238Z,2.75
2016-12-06T06:44:24.342Z,2.82
2016-12-06T06:45:24.349Z,2.81
2016-12-06T06:46:24.367Z,2.81
2016-12-06T06:47:24.380Z,2.75
2016-12-06T06:48:24.399Z,2.78
2016-12-06T06:49:24.416Z,2.81
2016-12-06T06:50:24.433Z,2.81
2016-12-06T06:51:24.441Z,2.82
2016-12-06T06:52:24.459Z,2.72
2016-12-06T06:53:24.474Z,2.77
2016-12-06T06:54:24.484Z,2.78
2016-12-06T06:55:24.507Z,2.71
2016-12-06T06:56:24.531Z,2.78
2016-12-06T06:57:39.455Z,2.78
2016-12-06T06:58:24.565Z,2.78
2016-12-06T06:59:24.575Z,2.79
2016-12-06T07:00:24.891Z,2.77
2016-12-06T07:01:24.604Z,2.75
2016-12-06T07:02:24.610Z,2.81
2016-12-06T07:03:24.637Z,2.79
2016-12-06T07:04:24.652Z,2.79
2016-12-06T07:05:24.654Z,2.84
2016-12-06T07:06:24.682Z,2.79
2016-12-06T07:07:24.693Z,2.79
2016-12-06T07:08:25.007Z,2.79
2016-12-06T07:09:24.724Z,2.82
2016-12-06T07:10:39.663Z,2.77
2016-12-06T07:11:24.761Z,2.84
2016-12-06T07:13:40.004Z,2.85
2016-12-06T07:16:24.833Z,2.81
2016-12-06T07:17:24.846Z,2.9
2016-12-06T07:18:24.865Z,2.9
2016-12-06T07:19:24.882Z,2.89
2016-12-06T07:20:24.892Z,2.84
2016-12-06T07:21:24.922Z,2.87
2016-12-06T07:22:24.934Z,2.87
2016-12-06T07:23:24.939Z,2.92
2016-12-06T07:24:24.957Z,2.84
2016-12-06T07:25:24.973Z,2.81
2016-12-06T07:26:25.300Z,2.87
2016-12-06T07:27:25.007Z,2.95
2016-12-06T07:28:39.948Z,2.84
2016-12-06T07:29:25.039Z,2.79
2016-12-06T07:30:25.057Z,2.79
2016-12-06T07:31:25.076Z,2.82
2016-12-06T07:32:25.088Z,2.84
2016-12-06T07:33:25.111Z,2.9
2016-12-06T07:34:25.123Z,2.85
2016-12-06T07:35:25.128Z,2.97
2016-12-06T07:36:25.147Z,2.92
2016-12-06T07:37:25.166Z,2.96
2016-12-06T07:38:25.176Z,2.85
2016-12-06T07:39:25.197Z,2.97
2016-12-06T07:40:25.233Z,2.95
2016-12-06T07:41:25.223Z,2.92
2016-12-06T07:42:40.166Z,2.87
2016-12-06T07:44:25.277Z,2.92
2016-12-06T07:45:25.290Z,2.93
2016-12-06T07:47:25.321Z,2.9
2016-12-06T07:49:25.358Z,2.99
2016-12-06T07:50:25.367Z,2.95
2016-12-06T07:51:25.385Z,3
2016-12-06T07:52:25.399Z,2.93
2016-12-06T07:53:25.416Z,2.97
2016-12-06T07:54:25.434Z,3.05
2016-12-06T07:55:25.452Z,2.96
2016-12-06T07:56:25.467Z,3.02
2016-12-06T07:57:40.401Z,3.03
2016-12-06T07:58:25.493Z,3.1
2016-12-06T07:59:40.432Z,3.06
2016-12-06T08:00:40.447Z,2.97
2016-12-06T08:02:25.560Z,2.99
2016-12-06T08:03:25.581Z,2.99
2016-12-06T08:04:25.593Z,2.96
2016-12-06T08:05:25.903Z,2.97
2016-12-06T08:06:25.624Z,2.9
2016-12-06T08:07:25.639Z,3.08
2016-12-06T08:08:25.654Z,3.05
2016-12-06T08:09:25.672Z,3.03
2016-12-06T08:10:25.683Z,2.95
2016-12-06T08:11:25.705Z,3.08
2016-12-06T08:12:25.719Z,2.93
2016-12-06T08:13:25.735Z,2.92
2016-12-06T08:14:25.753Z,3.03
2016-12-06T08:15:40.685Z,3.06
2016-12-06T08:16:40.698Z,3.02
2016-12-06T08:17:25.799Z,3.02
2016-12-06T08:18:40.730Z,3.11
2016-12-06T08:19:25.824Z,3.15
2016-12-06T08:20:25.839Z,3.14
2016-12-06T08:21:25.855Z,3.17
2016-12-06T08:22:25.873Z,3.17
2016-12-06T08:23:25.887Z,3.11
2016-12-06T08:24:26.216Z,3.08
2016-12-06T08:25:25.916Z,3.05
2016-12-06T08:26:25.933Z,3.05
2016-12-06T08:27:25.946Z,3.03
2016-12-06T08:28:25.963Z,3.08
2016-12-06T08:29:25.986Z,3.03
2016-12-06T08:30:26.303Z,3
2016-12-06T08:31:26.017Z,3.05
2016-12-06T08:32:40.957Z,3.17
2016-12-06T08:33:26.041Z,3.05
2016-12-06T08:34:26.062Z,3.2
2016-12-06T08:35:26.083Z,3.17
2016-12-06T08:36:26.099Z,3.35
2016-12-06T08:37:26.118Z,3.28
2016-12-06T08:38:26.127Z,3.28
2016-12-06T08:39:26.191Z,3.21
2016-12-06T08:40:26.159Z,3.23
2016-12-06T08:41:26.170Z,3.18
2016-12-06T08:42:26.189Z,3.23
2016-12-06T08:43:26.204Z,3.2
2016-12-06T08:44:26.221Z,3.2
2016-12-06T08:45:26.241Z,3.15
2016-12-06T08:46:26.262Z,3.17
2016-12-06T08:47:26.270Z,3.24
2016-12-06T08:48:41.210Z,3.23
2016-12-06T08:49:26.299Z,3.18
2016-12-06T08:50:26.315Z,3.15
2016-12-06T08:51:26.334Z,3.18
2016-12-06T08:52:26.349Z,3.2
2016-12-06T08:53:26.672Z,3.2
2016-12-06T08:54:26.379Z,3.17
2016-12-06T08:55:26.453Z,3.21
2016-12-06T08:56:26.421Z,3.21
2016-12-06T08:57:26.431Z,3.32
2016-12-06T08:58:26.445Z,3.13
2016-12-06T08:59:26.463Z,3.18
2016-12-06T09:00:26.487Z,3.17
2016-12-06T09:01:41.418Z,3.26
2016-12-06T09:02:41.436Z,3.29
2016-12-06T09:03:41.449Z,3.32
2016-12-06T09:04:26.542Z,3.39
2016-12-06T09:05:41.478Z,3.42
2016-12-06T09:06:26.576Z,3.54
2016-12-06T09:07:26.590Z,3.5
2016-12-06T09:08:26.607Z,3.52
2016-12-06T09:09:41.554Z,3.52
2016-12-06T09:10:26.639Z,3.6
2016-12-06T09:11:26.960Z,3.48
2016-12-06T09:12:26.673Z,3.57
2016-12-06T09:13:26.692Z,3.47
2016-12-06T09:14:26.704Z,3.6
2016-12-06T09:15:26.719Z,3.62
2016-12-06T09:16:26.744Z,3.5
2016-12-06T09:17:26.747Z,3.55
2016-12-06T09:18:26.770Z,3.61
2016-12-06T09:19:26.788Z,3.54
2016-12-06T09:20:26.807Z,3.5
2016-12-06T09:21:26.819Z,3.52
2016-12-06T09:23:26.854Z,3.55
2016-12-06T09:24:26.867Z,3.66
2016-12-06T09:25:26.882Z,3.55
2016-12-06T09:26:26.899Z,3.61
2016-12-06T09:27:26.915Z,3.52
2016-12-06T09:28:26.930Z,3.47
2016-12-06T09:29:26.949Z,3.51
2016-12-06T09:30:26.967Z,3.47
2016-12-06T09:31:27.284Z,3.48
2016-12-06T09:32:41.923Z,3.55
2016-12-06T09:33:27.016Z,3.6
2016-12-06T09:34:41.951Z,3.55
2016-12-06T09:35:41.968Z,3.54
2016-12-06T09:36:41.983Z,3.62
2016-12-06T09:37:41.997Z,3.66
2016-12-06T09:38:27.096Z,3.62
2016-12-06T09:39:27.111Z,3.65
2016-12-06T09:40:27.125Z,3.61
2016-12-06T09:41:27.145Z,3.61
2016-12-06T09:42:27.158Z,3.72
2016-12-06T09:43:27.174Z,3.68
2016-12-06T09:44:27.195Z,3.61
2016-12-06T09:45:27.207Z,3.58
2016-12-06T09:46:42.150Z,3.6
2016-12-06T09:47:27.238Z,3.65
2016-12-06T09:48:27.256Z,3.55
2016-12-06T09:49:27.276Z,3.6
2016-12-06T09:50:27.597Z,3.72
2016-12-06T09:51:42.229Z,3.55
2016-12-06T09:53:27.349Z,3.58
2016-12-06T09:54:27.355Z,3.58
2016-12-06T09:55:27.367Z,3.57
2016-12-06T09:56:27.381Z,3.73
2016-12-06T09:57:27.404Z,3.68
2016-12-06T09:58:27.423Z,3.83
2016-12-06T09:59:27.438Z,3.61
2016-12-06T10:00:27.456Z,3.66
2016-12-06T10:01:27.469Z,3.6
2016-12-06T10:02:27.487Z,3.6
2016-12-06T10:03:27.507Z,3.68
2016-12-06T10:04:27.879Z,3.58
2016-12-06T10:05:27.536Z,3.6
2016-12-06T10:06:27.548Z,3.65
2016-12-06T10:07:42.492Z,3.57
2016-12-06T10:09:27.654Z,3.54
2016-12-06T10:12:27.654Z,3.42
2016-12-06T10:13:27.663Z,3.35
2016-12-06T10:14:27.687Z,3.54
2016-12-06T10:15:27.695Z,3.6
2016-12-06T10:16:28.018Z,3.57
2016-12-06T10:17:27.729Z,3.57
2016-12-06T10:18:27.748Z,3.61
2016-12-06T10:19:27.761Z,3.68
2016-12-06T10:20:27.780Z,3.66
2016-12-06T10:21:27.797Z,3.62
2016-12-06T10:22:28.113Z,3.57
2016-12-06T10:23:42.752Z,3.61
2016-12-06T10:24:27.845Z,3.58
2016-12-06T10:25:27.869Z,3.58
2016-12-06T10:26:27.880Z,3.62
2016-12-06T10:27:27.898Z,3.57
2016-12-06T10:28:42.845Z,3.62
2016-12-06T10:29:28.252Z,3.58
2016-12-06T10:30:27.946Z,3.61
2016-12-06T10:31:27.964Z,3.75
2016-12-06T10:32:27.975Z,3.65
2016-12-06T10:33:27.996Z,3.73
2016-12-06T10:34:28.010Z,3.79
2016-12-06T10:35:28.020Z,3.83
2016-12-06T10:36:28.042Z,3.78
2016-12-06T10:37:42.981Z,3.69
2016-12-06T10:38:43.001Z,3.76
2016-12-06T10:39:28.094Z,3.75
2016-12-06T10:40:28.102Z,3.79
2016-12-06T10:41:28.124Z,3.86
2016-12-06T10:42:28.146Z,3.72
2016-12-06T10:43:28.155Z,3.72
2016-12-06T10:44:28.200Z,3.68
2016-12-06T10:45:28.190Z,3.73
2016-12-06T10:46:28.208Z,3.8
2016-12-06T10:47:28.219Z,3.88
2016-12-06T10:48:28.287Z,3.76
2016-12-06T10:49:28.257Z,3.8
2016-12-06T10:51:28.294Z,3.79
2016-12-06T10:52:28.327Z,3.8
2016-12-06T10:53:28.319Z,3.79
2016-12-06T10:54:28.339Z,3.78
2016-12-06T10:55:28.358Z,3.86
2016-12-06T10:56:28.372Z,3.8
2016-12-06T10:57:28.384Z,3.86
2016-12-06T10:58:28.402Z,3.91
2016-12-06T10:59:28.418Z,3.87
2016-12-06T11:00:28.441Z,3.88
2016-12-06T11:01:28.781Z,3.87
2016-12-06T11:02:28.469Z,3.87
2016-12-06T11:03:28.487Z,3.91
2016-12-06T11:04:28.501Z,3.88
2016-12-06T11:05:28.518Z,3.88
2016-12-06T11:06:28.530Z,3.83
2016-12-06T11:07:28.551Z,3.83
2016-12-06T11:09:43.510Z,3.83
2016-12-06T11:10:43.527Z,3.83
2016-12-06T11:11:28.617Z,3.8
2016-12-06T11:12:43.555Z,3.84
2016-12-06T11:13:28.655Z,3.8
2016-12-06T11:14:28.665Z,3.75
2016-12-06T11:15:28.685Z,3.84
2016-12-06T11:16:28.703Z,3.86
2016-12-06T11:17:28.712Z,3.76
2016-12-06T11:18:28.732Z,3.69
2016-12-06T11:19:28.754Z,3.8
2016-12-06T11:20:28.767Z,3.8
2016-12-06T11:21:28.786Z,3.88
2016-12-06T11:22:28.804Z,4
2016-12-06T11:23:28.813Z,4.04
2016-12-06T11:24:43.760Z,3.97
2016-12-06T11:25:28.854Z,3.9
2016-12-06T11:26:43.791Z,3.94
2016-12-06T11:27:29.181Z,4.04
2016-12-06T11:28:28.903Z,4.06
2016-12-06T11:29:28.914Z,4.08
2016-12-06T11:30:28.929Z,4.04
2016-12-06T11:31:28.947Z,3.97
2016-12-06T11:32:28.967Z,4.06
2016-12-06T11:33:28.981Z,4.02
2016-12-06T11:34:29.001Z,4
2016-12-06T11:35:29.018Z,4.02
2016-12-06T11:36:29.056Z,4
2016-12-06T11:37:29.046Z,4
2016-12-06T11:38:29.070Z,4.08
2016-12-06T11:39:29.089Z,4.09
2016-12-06T11:40:29.106Z,4.18
2016-12-06T11:41:29.111Z,4.09
2016-12-06T11:42:44.057Z,4.11
2016-12-06T11:43:29.147Z,4.09
2016-12-06T11:44:29.167Z,4.14
2016-12-06T11:45:29.186Z,4.09
2016-12-06T11:46:29.206Z,4.15
2016-12-06T11:47:29.223Z,4.16
2016-12-06T11:48:29.229Z,4.12
2016-12-06T11:49:29.249Z,4.16
2016-12-06T11:50:29.275Z,4.06
2016-12-06T11:51:29.294Z,4.02
2016-12-06T11:52:29.303Z,4.04
2016-12-06T11:54:29.335Z,3.88
2016-12-06T11:55:29.653Z,3.88
2016-12-06T11:56:44.293Z,3.91
2016-12-06T11:57:29.386Z,3.9
2016-12-06T11:58:44.323Z,4.02
2016-12-06T11:59:29.465Z,4.09
2016-12-06T12:00:29.441Z,4.06
2016-12-06T12:01:29.451Z,4
2016-12-06T12:02:29.468Z,4
2016-12-06T12:03:29.485Z,3.98
2016-12-06T12:04:29.502Z,4
2016-12-06T12:05:29.520Z,3.98
2016-12-06T12:06:29.535Z,3.88
2016-12-06T12:07:29.555Z,4.05
2016-12-06T12:08:29.570Z,4
2016-12-06T12:09:29.581Z,3.87
2016-12-06T12:10:29.603Z,3.84
2016-12-06T12:11:29.621Z,3.84
2016-12-06T12:12:29.641Z,3.83
2016-12-06T12:13:44.581Z,3.93
2016-12-06T12:14:29.668Z,4.02
2016-12-06T12:15:29.689Z,4
2016-12-06T12:16:29.703Z,4
2016-12-06T12:17:29.725Z,4.04
2016-12-06T12:18:29.736Z,4.08
2016-12-06T12:19:29.762Z,4
2016-12-06T12:20:29.772Z,4.05
2016-12-06T12:21:29.793Z,4.16
2016-12-06T12:22:29.802Z,4.18
2016-12-06T12:23:29.826Z,4.22
2016-12-06T12:24:29.837Z,4.26
2016-12-06T12:25:29.905Z,4.15
2016-12-06T12:26:29.868Z,4.16
2016-12-06T12:27:29.887Z,4.11
2016-12-06T12:28:29.909Z,4.12
2016-12-06T12:29:44.846Z,4.18
2016-12-06T12:30:29.936Z,4.14
2016-12-06T12:31:29.957Z,4.11
2016-12-06T12:32:29.980Z,4.05
2016-12-06T12:33:29.989Z,3.98
2016-12-06T12:34:30.008Z,4.05
2016-12-06T12:35:30.031Z,4.08
2016-12-06T12:36:30.042Z,3.98
2016-12-06T12:37:30.057Z,4.05
2016-12-06T12:38:30.069Z,4.02
2016-12-06T12:39:30.143Z,3.97
2016-12-06T12:40:30.111Z,3.98
2016-12-06T12:41:30.127Z,3.96
2016-12-06T12:42:30.141Z,4.04
2016-12-06T12:43:30.161Z,4.06
2016-12-06T12:44:30.175Z,4
2016-12-06T12:45:45.119Z,4.08
2016-12-06T12:46:30.262Z,4.08
2016-12-06T12:47:30.227Z,3.98
2016-12-06T12:48:30.242Z,3.97
2016-12-06T12:49:30.254Z,3.86
2016-12-06T12:50:30.278Z,3.94
2016-12-06T12:51:30.297Z,3.98
2016-12-06T12:52:30.310Z,4.02
2016-12-06T12:53:30.330Z,4
2016-12-06T12:54:30.351Z,3.94
2016-12-06T12:55:30.362Z,4
2016-12-06T12:56:30.373Z,4.02
2016-12-06T12:57:30.397Z,4.02
2016-12-06T12:58:45.338Z,3.87
2016-12-06T12:59:45.352Z,4
2016-12-06T13:00:30.444Z,4
2016-12-06T13:01:45.389Z,3.97
2016-12-06T13:02:45.399Z,4.11
2016-12-06T13:04:30.509Z,3.93
2016-12-06T13:05:30.533Z,3.98
2016-12-06T13:06:30.543Z,4
2016-12-06T13:07:30.562Z,3.98
2016-12-06T13:08:30.579Z,3.86
2016-12-06T13:09:30.595Z,3.87
2016-12-06T13:10:30.664Z,3.91
2016-12-06T13:11:30.629Z,3.97
2016-12-06T13:12:30.641Z,4.04
2016-12-06T13:13:30.658Z,4.04
2016-12-06T13:14:45.605Z,4.12
2016-12-06T13:15:45.620Z,4.11
2016-12-06T13:17:45.653Z,4.26
2016-12-06T13:18:30.748Z,4.22
2016-12-06T13:19:30.764Z,4.09
2016-12-06T13:20:30.781Z,4.15
2016-12-06T13:21:30.801Z,4.08
2016-12-06T13:22:30.818Z,4.08
2016-12-06T13:23:30.833Z,4.11
2016-12-06T13:24:30.849Z,4.14
2016-12-06T13:25:30.866Z,4.22
2016-12-06T13:26:30.884Z,4.14
2016-12-06T13:27:30.899Z,4.11
2016-12-06T13:28:30.917Z,4.09
2016-12-06T13:29:30.933Z,4.14
2016-12-06T13:30:31.000Z,4.05
2016-12-06T13:31:30.965Z,4.06
2016-12-06T13:32:31.290Z,4.06
2016-12-06T13:33:45.919Z,4.15
2016-12-06T13:34:31.022Z,4.09
2016-12-06T13:35:45.956Z,4.09
2016-12-06T13:36:31.050Z,4.15
2016-12-06T13:37:31.067Z,4.14
2016-12-06T13:38:31.084Z,4.16
2016-12-06T13:39:31.106Z,4.11
2016-12-06T13:40:31.115Z,4.05
2016-12-06T13:41:31.130Z,4.16
2016-12-06T13:42:31.158Z,4.08
2016-12-06T13:43:31.165Z,4.15
2016-12-06T13:44:31.189Z,4.26
2016-12-06T13:45:31.202Z,4.12
2016-12-06T13:46:31.223Z,4.11
2016-12-06T13:47:46.160Z,4.14
2016-12-06T13:48:46.174Z,4.06
2016-12-06T13:49:46.192Z,4.08
2016-12-06T13:50:46.207Z,4.14
2016-12-06T13:51:31.459Z,4.02
2016-12-06T13:52:31.323Z,4.02
2016-12-06T13:53:31.342Z,4.14
2016-12-06T13:54:31.351Z,4.14
2016-12-06T13:55:31.370Z,4.12
2016-12-06T13:56:31.397Z,4.15
2016-12-06T13:57:31.707Z,4.18
2016-12-06T13:58:31.431Z,4.23
2016-12-06T13:59:31.485Z,4.22
2016-12-06T14:00:31.457Z,4.23
2016-12-06T14:01:31.473Z,4.24
2016-12-06T14:02:31.790Z,4.22
2016-12-06T14:03:31.519Z,4.23
2016-12-06T14:04:31.533Z,4.16